Time;durP1;ratioP1;P1;durP2;ratioP2;P2;SDS_P1;SDS_P2;PMS_P1;PMS_P2;Temp;Humidity;BMP_temperature;BMP_pressure;BME280_temperature;BME280_humidity;BME280_pressure;Samples;Min_cycle;Max_cycle;Signal;HPM_P1;HPM_P2
2021/11/12 00:13:17;;;;;;;29.88;16.65;;;;;;;2.00;62.48;96226.25;5040696;28;20051;-80
2021/11/12 00:15:48;;;;;;;30.98;16.77;;;;;;;2.01;63.39;96220.84;5049357;28;20097;-80
2021/11/12 00:18:14;;;;;;;30.13;17.25;;;;;;;1.98;63.44;96221.06;5039583;28;20037;-82
2021/11/12 00:20:39;;;;;;;28.95;15.45;;;;;;;2.08;63.57;96221.28;5028667;28;20043;-79
2021/11/12 00:23:05;;;;;;;30.85;16.77;;;;;;;2.05;63.86;96213.53;5029321;28;20028;-80
2021/11/12 00:25:30;;;;;;;31.98;16.65;;;;;;;2.07;63.87;96212.50;5028790;28;20029;-80
2021/11/12 00:27:55;;;;;;;28.00;15.98;;;;;;;2.09;64.23;96207.09;5028155;28;20036;-80
2021/11/12 00:33:09;;;;;;;26.52;15.82;;;;;;;2.17;63.76;96210.06;5029618;28;20026;-80
2021/11/12 00:35:46;;;;;;;24.13;14.80;;;;;;;2.33;64.39;96209.00;5044761;28;20084;-80
2021/11/12 00:38:17;;;;;;;25.45;15.50;;;;;;;2.38;64.00;96206.88;5048598;28;20487;-80
2021/11/12 00:46:07;;;;;;;32.47;16.83;;;;;;;2.42;62.48;96197.75;5029079;28;20034;-81
2021/11/12 00:48:36;;;;;;;36.00;17.20;;;;;;;2.31;63.62;96195.00;5027232;28;20091;-80
2021/11/12 00:51:18;;;;;;;28.55;18.25;;;;;;;2.34;63.33;96200.94;5035530;28;20032;-81
2021/11/12 00:54:29;;;;;;;34.80;17.75;;;;;;;2.37;63.27;96193.75;5048496;28;20526;-79
2021/11/12 00:56:30;;;;;;;31.55;17.58;;;;;;;2.29;63.68;96192.47;5044189;28;20040;-80
2021/11/12 00:58:57;;;;;;;33.20;16.95;;;;;;;2.30;63.41;96188.88;5048372;28;20037;-80
2021/11/12 01:01:24;;;;;;;32.55;17.90;;;;;;;2.32;63.60;96191.44;5048181;28;20083;-80
2021/11/12 01:03:50;;;;;;;33.95;17.73;;;;;;;2.32;63.80;96186.13;5046763;28;20052;-80
2021/11/12 01:06:15;;;;;;;31.60;17.38;;;;;;;2.32;63.70;96186.13;5030738;28;20056;-81
2021/11/12 01:08:42;;;;;;;35.85;19.27;;;;;;;2.34;63.58;96190.34;5028123;28;20025;-80
2021/11/12 01:11:08;;;;;;;35.10;18.77;;;;;;;2.30;63.01;96183.59;5027075;28;20411;-80
2021/11/12 01:13:35;;;;;;;35.95;19.60;;;;;;;2.28;63.26;96182.84;5028213;28;20028;-80
2021/11/12 01:16:01;;;;;;;38.22;18.42;;;;;;;2.27;63.47;96180.31;5039626;28;20060;-81
2021/11/12 01:18:27;;;;;;;38.05;18.80;;;;;;;2.30;63.59;96180.09;5047712;28;20041;-80
2021/11/12 01:20:52;;;;;;;39.17;19.67;;;;;;;2.27;63.92;96185.59;5046519;28;20044;-80
2021/11/12 01:23:18;;;;;;;34.58;19.20;;;;;;;2.24;63.59;96180.53;5043893;28;20025;-80
2021/11/12 01:25:44;;;;;;;34.55;18.67;;;;;;;2.23;63.76;96184.97;5027555;28;20099;-81
2021/11/12 01:28:09;;;;;;;31.90;17.73;;;;;;;2.20;63.56;96179.88;5026819;28;20418;-81
2021/11/12 01:30:35;;;;;;;37.03;18.13;;;;;;;2.19;63.47;96186.97;5026487;28;20033;-80
2021/11/12 01:33:00;;;;;;;30.02;17.83;;;;;;;2.24;63.01;96177.88;5026576;28;20435;-80
2021/11/12 01:35:26;;;;;;;42.85;20.40;;;;;;;2.19;63.67;96172.91;5027718;28;20507;-80
2021/11/12 01:37:53;;;;;;;36.33;19.83;;;;;;;2.20;64.09;96171.94;5027978;28;20083;-79
2021/11/12 01:40:20;;;;;;;41.45;21.40;;;;;;;2.21;64.05;96163.88;5032589;28;20135;-80
2021/11/12 01:43:07;;;;;;;36.15;19.77;;;;;;;2.24;63.72;96168.16;5047246;28;20577;-80
2021/11/12 01:50:28;;;;;;;34.03;19.58;;;;;;;2.18;64.64;96158.81;5047956;28;20032;-81
2021/11/12 01:53:01;;;;;;;34.30;18.20;;;;;;;2.13;64.30;96155.63;5047190;28;20021;-79
2021/11/12 02:00:41;;;;;;;33.53;16.23;;;;;;;1.92;63.32;96152.69;5047522;28;20040;-79
2021/11/12 02:03:09;;;;;;;25.55;15.82;;;;;;;1.90;63.30;96152.81;5047221;28;20029;-80
2021/11/12 02:05:34;;;;;;;31.75;16.80;;;;;;;1.85;62.64;96146.97;5047189;28;20471;-81
2021/11/12 02:08:00;;;;;;;29.45;16.27;;;;;;;1.82;62.87;96142.72;5047293;28;20040;-79
2021/11/12 02:10:26;;;;;;;27.40;15.25;;;;;;;1.77;62.49;96149.28;5045666;28;20442;-80
2021/11/12 02:15:17;;;;;;;24.83;15.40;;;;;;;1.66;63.32;96142.09;5028214;28;20029;-80
2021/11/12 02:17:47;;;;;;;28.20;15.05;;;;;;;1.66;63.14;96144.72;5025769;28;20497;-79
2021/11/12 02:20:18;;;;;;;20.85;14.15;;;;;;;1.64;63.58;96144.84;5026990;28;20037;-80
2021/11/12 02:22:45;;;;;;;27.13;15.27;;;;;;;1.62;63.59;96146.72;5025757;28;20075;-79
2021/11/12 02:25:20;;;;;;;27.75;15.65;;;;;;;1.57;63.24;96139.09;5026882;28;20025;-79
2021/11/12 02:27:54;;;;;;;26.50;15.48;;;;;;;1.54;64.11;96141.09;5027182;28;20037;-80
2021/11/12 02:30:23;;;;;;;28.48;14.52;;;;;;;1.48;64.17;96143.19;5025822;28;20412;-79
2021/11/12 02:33:12;;;;;;;25.17;14.35;;;;;;;1.38;64.26;96146.56;5025804;28;20064;-79
2021/11/12 02:36:03;;;;;;;29.58;14.65;;;;;;;1.31;64.53;96146.97;5031836;28;20045;-80
2021/11/12 02:38:29;;;;;;;26.52;14.30;;;;;;;1.28;64.60;96143.69;5043055;28;20048;-81
2021/11/12 02:40:56;;;;;;;24.25;13.88;;;;;;;1.29;64.09;96145.41;5046391;28;20453;-80
2021/11/12 02:43:22;;;;;;;23.58;14.52;;;;;;;1.27;64.25;96148.16;5043561;28;20021;-79
2021/11/12 02:45:48;;;;;;;27.58;14.10;;;;;;;1.28;64.23;96139.25;5045750;28;20029;-82
2021/11/12 02:48:13;;;;;;;31.52;15.45;;;;;;;1.30;64.73;96137.38;5029960;28;20026;-82
2021/11/12 02:50:39;;;;;;;25.55;13.57;;;;;;;1.27;63.85;96142.84;5025726;28;20033;-80
2021/11/12 02:53:10;;;;;;;27.00;14.70;;;;;;;1.31;63.87;96140.84;5024982;28;20488;-79
2021/11/12 02:55:36;;;;;;;26.83;14.27;;;;;;;1.31;64.50;96128.47;5027068;28;20369;-81
2021/11/12 02:58:03;;;;;;;25.45;13.68;;;;;;;1.25;63.46;96133.31;5026648;28;20029;-81
2021/11/12 03:00:29;;;;;;;27.10;13.98;;;;;;;1.19;64.14;96121.38;5025029;28;20029;-80
2021/11/12 03:02:54;;;;;;;29.75;14.20;;;;;;;1.13;64.31;96124.44;5039966;28;20549;-80
2021/11/12 03:05:20;;;;;;;22.67;14.23;;;;;;;1.09;64.37;96119.34;5025364;28;20055;-80
2021/11/12 03:07:45;;;;;;;24.63;14.68;;;;;;;1.08;64.42;96119.44;5026783;28;20507;-80
2021/11/12 03:10:11;;;;;;;23.50;14.05;;;;;;;1.09;64.87;96127.28;5025133;28;20442;-80
2021/11/12 03:12:36;;;;;;;22.23;12.85;;;;;;;1.07;65.15;96123.88;5027204;28;20037;-79
2021/11/12 03:15:02;;;;;;;20.40;12.68;;;;;;;1.13;64.54;96117.31;5026475;28;20120;-80
2021/11/12 03:17:27;;;;;;;26.10;14.20;;;;;;;1.22;64.28;96126.47;5009622;28;20029;-79
2021/11/12 03:19:53;;;;;;;21.73;12.75;;;;;;;1.29;64.07;96124.25;5027184;28;20026;-81
2021/11/12 03:22:21;;;;;;;22.83;13.60;;;;;;;1.22;64.10;96123.81;5036448;28;20558;-80
2021/11/12 03:24:57;;;;;;;21.10;12.70;;;;;;;1.15;64.46;96123.38;5045030;28;20069;-80
2021/11/12 04:17:09;;;;;;;21.83;13.27;;;;;;;1.11;66.40;96091.00;5027981;28;20041;-79
2021/11/12 05:10:21;;;;;;;68.95;28.20;;;;;;;0.69;66.86;96090.25;5032796;28;20086;-77
2021/11/12 05:45:17;;;;;;;45.95;20.65;;;;;;;1.35;64.60;96103.53;5047399;28;20032;-81
2021/11/12 05:55:45;;;;;;;73.28;27.55;;;;;;;1.72;62.57;96112.56;5047813;28;20506;-81
2021/11/12 05:58:11;;;;;;;67.28;27.27;;;;;;;1.77;62.23;96106.97;5045860;28;20033;-81
2021/11/12 06:00:36;;;;;;;49.35;23.27;;;;;;;1.82;61.60;96116.25;5045923;28;20025;-82
2021/11/12 06:03:01;;;;;;;58.92;25.27;;;;;;;1.83;61.23;96107.41;5047501;28;20028;-82
2021/11/12 06:05:27;;;;;;;59.38;24.00;;;;;;;1.89;61.50;96111.41;5046024;28;20021;-82
2021/11/12 06:07:52;;;;;;;66.22;26.30;;;;;;;1.95;61.56;96110.16;5026264;28;20034;-84
2021/11/12 06:10:18;;;;;;;79.93;29.92;;;;;;;2.02;61.40;96105.25;5008989;28;20033;-83
2021/11/12 06:12:44;;;;;;;79.90;29.00;;;;;;;2.14;61.42;96115.00;5036020;28;20090;-82
2021/11/12 06:15:09;;;;;;;59.22;25.77;;;;;;;2.18;60.95;96115.59;5029232;28;20505;-81
2021/11/12 06:17:35;;;;;;;51.22;23.30;;;;;;;2.17;60.94;96111.28;5030255;28;20025;-80
2021/11/12 06:20:01;;;;;;;52.35;23.08;;;;;;;2.31;60.83;96116.44;5046706;28;20036;-80
2021/11/12 06:22:26;;;;;;;36.03;19.45;;;;;;;2.46;61.33;96117.16;5046148;28;20078;-79
2021/11/12 06:24:52;;;;;;;37.38;19.65;;;;;;;2.61;61.74;96113.53;5039597;28;20502;-82
2021/11/12 06:27:18;;;;;;;32.72;18.25;;;;;;;2.76;61.54;96111.56;5033815;28;20080;-83
2021/11/12 06:29:43;;;;;;;32.90;17.20;;;;;;;2.94;61.06;96107.56;5021418;28;20017;-83
2021/11/12 06:32:09;;;;;;;34.20;16.02;;;;;;;3.20;60.97;96106.59;5044303;28;20083;-84
2021/11/12 06:34:34;;;;;;;30.83;15.82;;;;;;;3.46;60.33;96106.44;5027870;28;20045;-82
2021/11/12 06:37:00;;;;;;;34.75;15.75;;;;;;;3.67;60.08;96113.72;5026603;28;20041;-81
2021/11/12 06:39:25;;;;;;;29.02;14.93;;;;;;;3.92;58.99;96117.13;5032549;28;20033;-82
2021/11/12 06:49:51;;;;;;;24.25;14.23;;;;;;;4.56;57.92;96113.03;5027241;28;20068;-82
2021/11/12 06:52:17;;;;;;;23.30;15.23;;;;;;;4.90;58.09;96108.66;5035796;28;20057;-81
2021/11/12 06:54:45;;;;;;;25.65;14.88;;;;;;;5.03;56.82;96101.34;5032128;28;20068;-81
2021/11/12 06:57:14;;;;;;;23.08;15.13;;;;;;;5.10;57.54;96103.50;5026702;28;20021;-82
2021/11/12 06:59:40;;;;;;;18.85;13.43;;;;;;;5.18;57.34;96093.06;5032003;28;20025;-81
2021/11/12 07:02:07;;;;;;;21.52;14.15;;;;;;;5.34;57.17;96099.81;5033972;28;20021;-80
2021/11/12 07:04:32;;;;;;;20.05;13.95;;;;;;;5.51;57.17;96091.25;5039367;28;20091;-81
2021/11/12 07:06:59;;;;;;;24.95;13.88;;;;;;;5.46;56.80;96088.13;5034367;28;20468;-79
2021/11/12 07:09:25;;;;;;;29.77;18.58;;;;;;;5.65;55.79;96090.09;5045240;28;20033;-80
2021/11/12 07:11:50;;;;;;;28.55;15.93;;;;;;;5.72;56.89;96089.56;5039808;28;20060;-80
2021/11/12 07:14:16;;;;;;;23.83;14.82;;;;;;;5.89;55.61;96086.31;5034253;28;20025;-81
2021/11/12 07:16:42;;;;;;;22.83;14.75;;;;;;;6.09;55.28;96082.94;5027857;28;20022;-81
2021/11/12 07:19:07;;;;;;;23.77;14.82;;;;;;;6.17;54.95;96083.94;5037836;28;20044;-80
2021/11/12 07:21:33;;;;;;;18.75;14.45;;;;;;;6.40;53.99;96085.59;5045966;28;20021;-80
2021/11/12 07:23:58;;;;;;;24.48;16.17;;;;;;;6.34;54.14;96081.63;5046405;28;20025;-80
2021/11/12 07:26:24;;;;;;;27.48;17.15;;;;;;;6.28;54.73;96077.69;5033866;28;20052;-78
2021/11/12 07:28:50;;;;;;;23.90;17.20;;;;;;;6.43;54.87;96078.16;5040673;28;20034;-79
2021/11/12 07:31:16;;;;;;;25.48;16.02;;;;;;;6.24;55.81;96076.25;5040152;28;20036;-80
2021/11/12 07:33:43;;;;;;;23.30;16.48;;;;;;;6.31;55.50;96076.56;5018830;28;20568;-78
2021/11/12 07:36:17;;;;;;;28.60;16.58;;;;;;;6.28;55.43;96075.03;5043154;28;20369;-80
2021/11/12 07:38:49;;;;;;;23.33;16.33;;;;;;;6.27;55.82;96070.66;5041083;28;20060;-81
2021/11/12 07:41:52;;;;;;;26.27;17.17;;;;;;;6.45;54.89;96070.00;5041487;28;20112;-79
2021/11/12 07:46:59;;;;;;;28.58;17.17;;;;;;;6.56;55.28;96063.75;5032541;28;20467;-77
2021/11/12 07:49:25;;;;;;;27.90;16.65;;;;;;;6.50;54.88;96062.47;5031613;28;20048;-79
2021/11/12 07:51:50;;;;;;;23.35;16.27;;;;;;;6.44;56.02;96073.66;5030121;28;20611;-79
2021/11/12 07:54:16;;;;;;;28.42;17.20;;;;;;;6.61;55.41;96068.69;5038212;28;20419;-77
2021/11/12 07:56:41;;;;;;;23.90;16.52;;;;;;;6.64;55.20;96057.75;5047949;28;20436;-78
2021/11/12 07:59:07;;;;;;;27.23;17.23;;;;;;;6.60;55.59;96054.50;5026866;28;20029;-79
2021/11/12 08:01:32;;;;;;;26.80;16.30;;;;;;;6.73;54.93;96056.06;5029062;28;20033;-80
2021/11/12 08:04:00;;;;;;;30.20;18.83;;;;;;;6.79;55.10;96050.16;5048194;28;20407;-79
2021/11/12 08:06:27;;;;;;;28.88;19.10;;;;;;;6.87;54.86;96060.16;5048707;28;20231;-78
2021/11/12 08:09:01;;;;;;;26.40;17.85;;;;;;;7.07;54.33;96058.34;5047946;28;20144;-80
2021/11/12 08:22:01;;;;;;;26.98;17.55;;;;;;;7.66;53.03;96052.97;5048200;28;20033;-78
2021/11/12 08:27:41;;;;;;;26.75;17.38;;;;;;;7.79;52.93;96047.34;5049576;28;20438;-79
2021/11/12 08:32:46;;;;;;;34.85;18.15;;;;;;;8.01;52.73;96039.94;5040032;28;20036;-79
2021/11/12 08:37:49;;;;;;;24.88;16.77;;;;;;;8.22;52.17;96036.19;5046479;28;20029;-78
2021/11/12 08:40:30;;;;;;;23.35;15.80;;;;;;;8.37;52.07;96035.72;5048865;28;20033;-78
2021/11/12 08:46:29;;;;;;;17.98;13.00;;;;;;;8.73;51.39;96029.66;5028849;28;20052;-78
2021/11/12 08:51:18;;;;;;;22.45;13.95;;;;;;;8.65;51.04;96019.72;5039298;28;20546;-79
2021/11/12 08:53:45;;;;;;;20.98;14.85;;;;;;;8.55;50.83;96018.91;5028541;28;20475;-80
2021/11/12 08:56:13;;;;;;;22.20;15.73;;;;;;;8.59;51.31;96023.00;5034226;28;20029;-80
2021/11/12 08:58:41;;;;;;;22.77;15.40;;;;;;;8.63;50.67;96019.84;5033676;28;20029;-80
2021/11/12 09:01:07;;;;;;;21.52;14.55;;;;;;;8.67;50.48;96016.88;5035186;28;20491;-79
2021/11/12 09:03:32;;;;;;;24.05;15.52;;;;;;;8.82;50.35;96010.00;5028507;28;20072;-80
2021/11/12 09:05:58;;;;;;;25.52;16.02;;;;;;;8.91;50.46;96013.63;5030096;28;20384;-81
2021/11/12 09:08:23;;;;;;;26.52;17.00;;;;;;;8.72;50.30;96006.59;5045892;28;20025;-81
2021/11/12 09:10:49;;;;;;;24.42;17.25;;;;;;;8.70;49.88;96005.88;5047688;28;20025;-82
2021/11/12 09:13:19;;;;;;;26.33;16.02;;;;;;;8.64;50.38;96010.00;5048314;28;20032;-82
2021/11/12 09:15:50;;;;;;;31.80;17.60;;;;;;;8.70;50.65;96001.38;5049052;28;20527;-80
2021/11/12 09:18:18;;;;;;;24.52;16.45;;;;;;;8.83;50.96;96000.16;5047450;28;20479;-83
2021/11/12 09:20:43;;;;;;;23.15;16.85;;;;;;;8.95;50.66;95993.59;5048563;28;20025;-82
2021/11/12 09:23:09;;;;;;;23.10;16.08;;;;;;;9.15;49.70;95988.94;5047836;28;20381;-82
2021/11/12 09:25:34;;;;;;;25.30;16.38;;;;;;;9.33;49.25;95989.91;5046777;28;20415;-81
2021/11/12 09:27:59;;;;;;;24.75;16.02;;;;;;;9.33;49.03;95988.06;5046376;28;20476;-82
2021/11/12 09:30:25;;;;;;;24.80;16.33;;;;;;;9.35;48.76;95979.88;5048200;28;20411;-81
2021/11/12 09:32:51;;;;;;;25.58;16.33;;;;;;;9.35;49.23;95974.53;5047753;28;20435;-81
2021/11/12 09:35:17;;;;;;;21.45;14.13;;;;;;;9.43;48.26;95968.38;5045853;28;20057;-81
2021/11/12 09:37:43;;;;;;;20.70;13.93;;;;;;;9.47;48.63;95970.59;5013027;28;20040;-82
2021/11/12 09:40:08;;;;;;;17.48;12.45;;;;;;;9.60;47.51;95964.81;5055409;28;20029;-83
2021/11/12 09:42:35;;;;;;;20.08;14.25;;;;;;;9.59;47.20;95954.28;5056883;28;20040;-83
2021/11/12 09:45:00;;;;;;;20.08;12.93;;;;;;;9.67;47.62;95957.00;5013948;28;20052;-81
2021/11/12 09:47:27;;;;;;;23.73;14.32;;;;;;;9.66;48.54;95952.63;5029206;28;20029;-78
2021/11/12 09:50:02;;;;;;;23.63;15.05;;;;;;;9.55;47.08;95950.22;5046539;28;20025;-83
2021/11/12 09:52:29;;;;;;;22.90;14.27;;;;;;;9.48;47.55;95950.84;5047863;28;20033;-81
2021/11/12 09:54:54;;;;;;;20.42;15.50;;;;;;;9.55;47.65;95942.19;5047668;28;20017;-80
2021/11/12 09:57:20;;;;;;;23.42;15.75;;;;;;;9.53;47.87;95942.34;5045483;28;20063;-78
2021/11/12 09:59:47;;;;;;;26.58;16.05;;;;;;;9.62;47.93;95945.91;5047769;28;20568;-79
2021/11/12 10:02:14;;;;;;;22.00;14.57;;;;;;;9.74;46.58;95933.06;5047323;28;20044;-80
2021/11/12 10:04:40;;;;;;;21.02;15.13;;;;;;;9.70;46.97;95927.22;5047045;28;20021;-79
2021/11/12 10:07:13;;;;;;;22.25;15.07;;;;;;;9.70;47.29;95921.88;5047607;28;20052;-79
2021/11/12 10:09:38;;;;;;;;;;;;;;;9.71;46.92;95923.53;5046046;28;20025;-80
2021/11/12 10:12:05;;;;;;;22.27;13.48;;;;;;;9.69;47.60;95920.16;5047685;28;20322;-83
2021/11/12 10:14:39;;;;;;;21.52;13.63;;;;;;;9.76;46.98;95913.19;5045388;28;20052;-80
2021/11/12 10:17:06;;;;;;;23.17;14.07;;;;;;;9.71;46.94;95912.81;5044437;28;20087;-81
2021/11/12 10:19:31;;;;;;;21.05;14.85;;;;;;;9.77;47.00;95912.19;5040281;28;20098;-80
2021/11/12 10:22:01;;;;;;;23.27;15.30;;;;;;;9.84;46.39;95901.66;5039615;28;20034;-79
2021/11/12 10:24:32;;;;;;;20.77;13.32;;;;;;;9.90;46.80;95897.50;5031754;28;20032;-80
2021/11/12 10:27:10;;;;;;;20.33;14.55;;;;;;;10.07;46.42;95894.88;5046846;28;20039;-79
2021/11/12 10:29:46;;;;;;;21.77;14.27;;;;;;;10.05;47.03;95892.34;5043824;28;20064;-80
2021/11/12 10:32:19;;;;;;;27.25;15.10;;;;;;;9.99;45.48;95888.50;5044690;28;20057;-80
2021/11/12 10:34:45;;;;;;;23.38;15.23;;;;;;;9.97;45.73;95879.78;5037427;28;20033;-77
2021/11/12 10:37:22;;;;;;;27.58;15.05;;;;;;;10.06;46.50;95877.94;5029581;28;20041;-82
2021/11/12 10:40:02;;;;;;;23.13;14.35;;;;;;;10.14;44.84;95869.94;5046431;28;20033;-80
2021/11/12 10:42:29;;;;;;;20.73;13.68;;;;;;;10.20;44.93;95872.97;5047763;28;20197;-80
2021/11/12 10:44:57;;;;;;;17.50;13.77;;;;;;;10.22;44.50;95862.94;5044912;28;20576;-81
2021/11/12 10:47:23;;;;;;;20.55;14.15;;;;;;;10.33;45.18;95862.63;5026684;28;20095;-80
2021/11/12 10:49:55;;;;;;;29.52;15.63;;;;;;;10.52;45.46;95866.03;5043412;28;20021;-80
2021/11/12 10:52:22;;;;;;;23.67;15.02;;;;;;;10.63;43.19;95864.84;5022851;28;20059;-80
2021/11/12 10:54:58;;;;;;;22.85;15.25;;;;;;;10.67;43.90;95863.53;5032946;28;20032;-80
2021/11/12 10:57:35;;;;;;;27.20;16.45;;;;;;;10.78;43.42;95854.31;5044387;28;20029;-80
2021/11/12 11:00:11;;;;;;;25.98;17.00;;;;;;;10.81;42.49;95853.13;5035878;28;20043;-80
2021/11/12 11:02:50;;;;;;;23.45;16.45;;;;;;;10.83;42.12;95851.94;5029518;28;20852;-81
2021/11/12 11:05:20;;;;;;;23.95;17.20;;;;;;;10.84;42.02;95852.78;5041836;28;20498;-80
2021/11/12 11:07:56;;;;;;;29.08;18.45;;;;;;;11.02;42.28;95843.72;5043089;28;20495;-80
2021/11/12 11:10:40;;;;;;;31.52;17.50;;;;;;;11.22;41.89;95842.34;5028266;28;20032;-79
2021/11/12 11:13:15;;;;;;;25.02;15.95;;;;;;;11.32;41.41;95838.63;5046578;28;20530;-80
2021/11/12 11:15:53;;;;;;;21.50;15.25;;;;;;;11.54;41.03;95837.06;5043477;28;20079;-79
2021/11/12 11:18:30;;;;;;;25.08;17.85;;;;;;;11.58;40.74;95833.00;5041370;28;20990;-78
2021/11/12 11:21:06;;;;;;;29.52;18.80;;;;;;;11.64;39.69;95826.09;5038066;28;20427;-79
2021/11/12 11:23:49;;;;;;;22.50;15.20;;;;;;;11.81;39.33;95823.34;5045222;28;20013;-79
2021/11/12 11:26:25;;;;;;;31.40;17.80;;;;;;;11.94;39.99;95820.94;5042688;28;20040;-80
2021/11/12 11:28:52;;;;;;;25.27;17.77;;;;;;;11.85;37.32;95821.97;5040130;28;20064;-78
2021/11/12 11:31:17;;;;;;;21.60;16.08;;;;;;;11.96;38.41;95816.22;5026095;28;20025;-79
2021/11/12 11:33:45;;;;;;;28.25;17.20;;;;;;;12.03;38.86;95818.19;5026756;28;20033;-80
2021/11/12 11:36:11;;;;;;;23.75;16.55;;;;;;;12.19;38.94;95809.22;5040792;28;20045;-78
2021/11/12 11:38:39;;;;;;;22.55;16.52;;;;;;;12.28;39.07;95810.00;5039672;28;20553;-84
2021/11/12 11:41:06;;;;;;;24.75;17.17;;;;;;;12.30;37.39;95808.00;5026688;28;20036;-83
2021/11/12 11:43:31;;;;;;;23.55;14.45;;;;;;;12.34;34.49;95814.69;5029944;28;20385;-86
2021/11/12 11:46:06;;;;;;;23.88;14.70;;;;;;;12.34;34.55;95806.59;5038218;28;20553;-84
2021/11/12 11:48:33;;;;;;;22.00;14.43;;;;;;;12.39;36.83;95806.91;5038961;28;20373;-85
2021/11/12 11:51:00;;;;;;;23.45;16.27;;;;;;;12.52;37.35;95803.63;5035617;28;20033;-83
2021/11/12 11:53:30;;;;;;;26.80;16.30;;;;;;;12.36;35.19;95802.72;5031945;28;20037;-80
2021/11/12 11:56:20;;;;;;;24.75;15.68;;;;;;;12.29;35.63;95806.28;5037282;28;20475;-79
2021/11/12 11:58:46;;;;;;;32.88;15.77;;;;;;;12.29;35.86;95801.75;5034491;28;20029;-78
2021/11/12 12:01:12;;;;;;;25.95;16.35;;;;;;;12.22;34.74;95796.25;5032957;28;20017;-79
2021/11/12 12:03:38;;;;;;;22.13;15.18;;;;;;;12.20;35.68;95802.84;5034211;28;20116;-81
2021/11/12 12:06:05;;;;;;;21.20;14.73;;;;;;;12.17;36.34;95801.31;5041588;28;20029;-78
2021/11/12 12:08:31;;;;;;;23.88;15.07;;;;;;;12.23;36.84;95803.34;5037897;28;20116;-78
2021/11/12 12:11:19;;;;;;;24.65;16.42;;;;;;;12.33;37.58;95794.19;5037292;28;20033;-81
2021/11/12 12:13:44;;;;;;;28.88;16.80;;;;;;;12.49;37.32;95790.53;5039123;28;20018;-80
2021/11/12 12:16:10;;;;;;;28.98;15.85;;;;;;;12.64;36.90;95789.75;5041680;28;20025;-84
2021/11/12 12:18:46;;;;;;;25.60;15.98;;;;;;;12.80;36.75;95792.28;5039696;28;20021;-81
2021/11/12 12:33:18;;;;;;;20.65;15.40;;;;;;;13.62;33.75;95783.56;5033861;28;20047;-79
2021/11/12 12:36:52;;;;;;;24.10;15.73;;;;;;;13.76;34.53;95781.00;5048403;28;20150;-80
2021/11/12 13:22:00;;;;;;;25.50;13.20;;;;;;;14.18;32.94;95759.69;5028086;28;20132;-80
2021/11/12 13:24:43;;;;;;;32.42;16.67;;;;;;;14.31;33.81;95754.44;5026739;28;20021;-82
2021/11/12 13:27:09;;;;;;;22.38;13.90;;;;;;;14.42;32.55;95761.19;5042727;28;20040;-82
2021/11/12 13:29:37;;;;;;;20.20;13.02;;;;;;;14.50;32.91;95751.28;5040816;28;20021;-80
2021/11/12 13:32:06;;;;;;;23.60;13.27;;;;;;;14.61;32.58;95753.44;5033554;28;20389;-81
2021/11/12 13:34:45;;;;;;;20.27;12.27;;;;;;;14.74;32.02;95754.59;5027879;28;20028;-82
2021/11/12 13:37:15;;;;;;;19.98;11.65;;;;;;;14.81;30.76;95752.81;5035146;28;20045;-82
2021/11/12 13:39:40;;;;;;;20.05;11.63;;;;;;;14.81;30.76;95758.22;5033301;28;20053;-83
2021/11/12 13:42:09;;;;;;;16.95;10.32;;;;;;;14.79;31.05;95749.44;5036940;28;20468;-82
2021/11/12 13:44:38;;;;;;;20.88;11.10;;;;;;;14.76;30.87;95744.44;5048167;28;20025;-81
2021/11/12 13:47:07;;;;;;;17.25;10.27;;;;;;;14.71;31.37;95740.47;5047082;28;20029;-83
2021/11/12 13:49:40;;;;;;;17.27;9.93;;;;;;;14.67;31.67;95744.56;5044753;28;20029;-81
2021/11/12 13:52:20;;;;;;;15.10;9.77;;;;;;;14.49;31.51;95746.91;5038059;28;20514;-79
2021/11/12 13:54:47;;;;;;;18.02;10.95;;;;;;;14.41;31.45;95743.31;5028407;28;20030;-79
2021/11/12 13:57:18;;;;;;;18.45;11.23;;;;;;;14.26;31.93;95739.84;5046592;28;20059;-79
2021/11/12 14:00:03;;;;;;;14.60;9.60;;;;;;;14.10;31.54;95741.78;5012706;28;20029;-80
2021/11/12 14:02:30;;;;;;;14.93;9.95;;;;;;;14.05;32.27;95738.81;5047721;28;20044;-79
2021/11/12 14:05:09;;;;;;;21.48;10.38;;;;;;;13.87;32.85;95742.78;5047216;28;20024;-79
2021/11/12 14:07:35;;;;;;;19.75;9.88;;;;;;;13.76;32.17;95743.28;5042266;28;20458;-81
2021/11/12 14:10:05;;;;;;;14.18;9.27;;;;;;;13.69;33.12;95746.72;5044201;28;20044;-79
2021/11/12 14:12:31;;;;;;;17.67;9.15;;;;;;;13.60;33.54;95745.16;5046465;28;20544;-79
2021/11/12 14:15:18;;;;;;;14.32;8.77;;;;;;;13.47;33.70;95749.34;5029018;28;20136;-79
2021/11/12 14:17:59;;;;;;;13.95;9.02;;;;;;;13.40;33.75;95748.41;5044162;28;20025;-78
2021/11/12 14:23:10;;;;;;;15.57;8.82;;;;;;;13.21;34.14;95761.41;5037812;28;20045;-80
2021/11/12 14:28:19;;;;;;;15.23;8.90;;;;;;;13.00;34.23;95754.06;5044598;28;20526;-82
2021/11/12 14:31:02;;;;;;;18.45;11.00;;;;;;;12.95;34.64;95753.78;5046368;28;20055;-82
2021/11/12 14:39:00;;;;;;;22.45;11.45;;;;;;;12.65;35.11;95757.28;5043956;28;20040;-83
2021/11/12 14:41:57;;;;;;;16.20;10.50;;;;;;;12.53;35.01;95759.56;5046908;28;20492;-81
2021/11/12 14:47:15;;;;;;;22.63;10.15;;;;;;;12.34;35.33;95766.25;5043677;28;20047;-81
2021/11/12 14:49:48;;;;;;;16.67;10.98;;;;;;;12.29;35.87;95760.56;5028193;28;20501;-78
2021/11/12 14:52:23;;;;;;;19.40;10.35;;;;;;;12.21;35.91;95759.63;5042467;28;20473;-81
2021/11/12 14:55:01;;;;;;;16.30;9.52;;;;;;;12.08;35.96;95762.06;5043540;28;20028;-80
2021/11/12 14:57:30;;;;;;;20.05;8.70;;;;;;;11.94;36.14;95761.81;5045451;28;20468;-81
2021/11/12 15:00:01;;;;;;;13.45;7.80;;;;;;;11.84;36.11;95753.13;5043124;28;20036;-79
2021/11/12 15:02:30;;;;;;;11.85;7.45;;;;;;;11.75;36.38;95757.72;5043755;28;20025;-82
2021/11/12 15:04:56;;;;;;;12.32;8.73;;;;;;;11.73;36.84;95771.34;5043491;28;20021;-79
2021/11/12 15:07:25;;;;;;;19.38;8.60;;;;;;;11.71;37.14;95759.06;5044465;28;20040;-80
2021/11/12 15:09:52;;;;;;;17.83;8.98;;;;;;;11.60;36.98;95763.00;5043407;28;20112;-80
2021/11/12 15:12:17;;;;;;;13.05;7.95;;;;;;;11.49;37.29;95764.22;5044095;28;20047;-79
2021/11/12 15:14:48;;;;;;;15.23;8.45;;;;;;;11.41;37.59;95765.09;5044912;28;20503;-80
2021/11/12 15:17:13;;;;;;;19.67;8.48;;;;;;;11.38;38.15;95763.56;5044534;28;20032;-79
2021/11/12 15:19:42;;;;;;;20.40;9.57;;;;;;;11.36;38.50;95767.47;5045272;28;20025;-79
2021/11/12 15:22:22;;;;;;;14.75;8.82;;;;;;;11.30;38.66;95773.53;5044547;28;20035;-80
2021/11/12 15:27:32;;;;;;;21.27;9.38;;;;;;;11.18;39.26;95783.78;5044531;28;20128;-80
2021/11/12 15:30:09;;;;;;;18.10;9.85;;;;;;;11.10;39.44;95787.34;5043596;28;20017;-79
2021/11/12 15:32:37;;;;;;;12.20;8.88;;;;;;;11.01;39.55;95791.88;5044099;28;20488;-80
2021/11/12 15:35:09;;;;;;;20.73;10.15;;;;;;;10.88;39.34;95792.41;5043035;28;20482;-81
2021/11/12 15:40:11;;;;;;;17.10;9.30;;;;;;;10.69;39.57;95797.13;5044227;28;20108;-81
2021/11/12 15:45:40;;;;;;;20.33;10.32;;;;;;;10.60;40.30;95801.66;5049116;28;20443;-79
2021/11/12 15:48:13;;;;;;;23.65;10.48;;;;;;;10.58;41.64;95805.50;5049580;28;20024;-80
2021/11/12 16:01:30;;;;;;;38.83;13.30;;;;;;;10.17;43.88;95814.34;5049484;28;20051;-80
2021/11/12 16:19:39;;;;;;;38.53;19.52;;;;;;;9.68;45.05;95827.44;5048704;28;20036;-78
2021/11/12 16:27:18;;;;;;;43.60;26.40;;;;;;;9.25;46.65;95838.94;5049209;28;20021;-79
2021/11/12 16:29:54;;;;;;;52.50;20.80;;;;;;;9.16;46.76;95842.56;5048909;28;20017;-79
2021/11/12 16:33:05;;;;;;;40.97;19.77;;;;;;;9.10;47.04;95848.56;5049219;28;20075;-79
2021/11/12 16:35:10;;;;;;;44.25;20.98;;;;;;;9.03;47.80;95842.97;5044190;28;20085;-80
2021/11/12 16:37:35;;;;;;;49.72;22.02;;;;;;;8.96;47.80;95849.97;5049065;28;20430;-79
2021/11/12 16:40:13;;;;;;;50.17;25.15;;;;;;;8.97;47.46;95848.97;5046916;28;20060;-78
2021/11/12 16:48:05;;;;;;;62.55;27.73;;;;;;;8.80;48.37;95856.03;5046822;28;20463;-79
2021/11/12 16:51:18;;;;;;;64.15;34.83;;;;;;;8.75;47.94;95854.66;5049092;28;20078;-79
2021/11/12 16:53:39;;;;;;;73.03;35.92;;;;;;;8.70;47.98;95851.63;5047159;28;20036;-80
2021/11/12 16:59:06;;;;;;;67.22;33.47;;;;;;;8.55;48.93;95863.84;5049760;28;20068;-78
2021/11/12 17:46:59;;;;;;;86.53;44.92;;;;;;;7.02;55.08;95869.41;5048032;28;20056;-78